Voyager Of The Seas — C6SE5 — position and weather

sailwx.info

Track history (hours):
 
Tides and Currents Weather Stations Pressure Air Temp Water Temp Dewpoint Dewpoint Depression Visibility Wind Speed Wind Dir Waves Ship Positions

Voyager Of The Seas

Operator: Royal Caribbean Cruises Ltd

Last reported at 2018-Feb-22 08:00 UTC. Time now 2018-Feb-22 10:46 UTC.
Position S 22°33' E 166°02'.

Type: Passenger vessel. MMSI: 311317000.

Date/timePositionNaut miles runAvg speedWind from/ knotsBaromVisibWave heightAir tempDewpointWater temp
2018-Feb-22 08:00S 22°33' E 166°02'917.3
2018-Feb-22 07:28S 22°27' E 166°09'817.8
2018-Feb-22 07:00S 22°21' E 166°16'713.1
2018-Feb-22 06:31S 22°16' E 166°21'5 9.3
2018-Feb-22 06:01S 22°16' E 166°26'0 0.8
2018-Feb-22 05:28S 22°16' E 166°26'0 0.0
2018-Feb-22 04:56S 22°16' E 166°26'0 0.0
2018-Feb-22 04:28S 22°16' E 166°26'0 0.0
2018-Feb-22 03:58S 22°16' E 166°26'0 0.0
2018-Feb-22 03:29S 22°16' E 166°26'0 0.0
2018-Feb-22 02:58S 22°16' E 166°26'0 0.0
2018-Feb-22 02:28S 22°16' E 166°26'0 0.0
2018-Feb-22 01:58S 22°16' E 166°26'0 0.0
2018-Feb-22 01:28S 22°16' E 166°26'0 0.0
2018-Feb-22 00:58S 22°16' E 166°26'0 0.0
2018-Feb-22 00:28S 22°16' E 166°26'0 0.0
2018-Feb-21 23:58S 22°16' E 166°26'0 0.0
2018-Feb-21 23:29S 22°16' E 166°26'0 0.0
2018-Feb-21 22:58S 22°16' E 166°26'0 0.0
2018-Feb-21 22:28S 22°16' E 166°26'0 0.0
2018-Feb-21 21:55S 22°16' E 166°26'0 0.0
2018-Feb-21 21:28S 22°16' E 166°26'0 0.0
2018-Feb-21 20:58S 22°16' E 166°26'0 0.0
2018-Feb-21 20:28S 22°16' E 166°26'1 1.4
2018-Feb-21 20:00S 22°16' E 166°26'2 4.9
2018-Feb-21 19:30S 22°18' E 166°25'816.7
2018-Feb-21 19:00S 22°22' E 166°33'816.7
2018-Feb-21 18:31S 22°23' E 166°41'58 7.7
2018-Feb-21 11:00S 21°36' E 167°18'19011.2 100 / 111011.010.8 27.0
2018-Feb-20 18:00S 24°42' E 168°00'29112.1 090 / 141008.010.8 26.0 27.0
2018-Feb-19 18:00S 20°00' E 169°18'204 7.0 090 / 131008.010.8 27.0 27.0
2018-Feb-18 13:00S 18°00' E 166°24'30716.2 110 / 111009.010.8 27.0
2018-Feb-17 18:00S 19°24' E 161°12'7510.7 320 / 121005.010.8 25.0 26.0
2018-Feb-17 11:00S 20°06' E 160°06'33019.4 190 / 151007.010.8 26.0
2018-Feb-16 18:00S 24°24' E 156°24'14320.4 150 / 141009.010.8 25.0 26.0
2018-Feb-16 11:00S 26°42' E 155°42'37618.9 110 / 131011.010.8 26.0
2018-Feb-15 15:05S 32°35' E 153°12'219.0
2018-Feb-15 14:59S 32°36' E 153°10'919.1
2018-Feb-15 14:30S 32°42' E 153°02'1020.0
2018-Feb-15 14:00S 32°49' E 152°52'1020.4
2018-Feb-15 13:30S 32°55' E 152°43'1020.5
2018-Feb-15 13:00S 33°02' E 152°34'1020.4
2018-Feb-15 12:30S 33°09' E 152°25'1020.3
2018-Feb-15 12:00S 33°15' E 152°15'2819.4
2018-Feb-15 10:35S 33°33' E 151°50'118.9
2018-Feb-15 10:30S 33°34' E 151°49'1119.1
2018-Feb-15 09:55S 33°41' E 151°39'818.6
2018-Feb-15 09:30S 33°46' E 151°31'816.6
2018-Feb-15 09:00S 33°50' E 151°23'1 0.1
2018-Feb-14 18:08S 33°49' E 151°23'214.0
2018-Feb-14 18:00S 33°49' E 151°26'5918.1
2018-Feb-14 14:44S 33°12' E 152°22'617.8
2018-Feb-14 14:24S 33°09' E 152°28'717.4
2018-Feb-14 14:01S 33°05' E 152°34'917.7
2018-Feb-14 13:31S 32°58' E 152°41'917.7
2018-Feb-14 12:59S 32°52' E 152°49'1017.2
2018-Feb-14 12:26S 32°46' E 152°58'717.0
2018-Feb-14 12:00S 32°41' E 153°04'917.2
2018-Feb-14 11:30S 32°35' E 153°12'917.7
2018-Feb-14 11:01S 32°30' E 153°20'918.1
2018-Feb-14 10:31S 32°24' E 153°28'918.0
2018-Feb-14 10:01S 32°18' E 153°36'1018.0
2018-Feb-14 09:26S 32°11' E 153°45'818.1
2018-Feb-14 09:01S 32°06' E 153°52'1018.3
2018-Feb-14 08:28S 31°59' E 154°00'817.9
2018-Feb-14 08:01S 31°54' E 154°08'917.8
2018-Feb-14 07:30S 31°48' E 154°15'34018.3
2018-Feb-13 13:00S 28°00' E 159°06'1616.0 060 / 111011.010.8 24.0 25.0
2018-Feb-13 12:00S 27°48' E 159°18'43418.1 060 / 101010.827.0 24.5 24.0
2018-Feb-12 12:00S 23°00' E 165°18'4617.0 160 / 181007.010.8 25.0
2018-Feb-12 09:19S 22°34' E 165°59'517.9
2018-Feb-12 09:00S 22°30' E 166°03'917.7
2018-Feb-12 08:30S 22°25' E 166°11'  
Track history (hours):
 
Tides and Currents Weather Stations Pressure Air Temp Water Temp Dewpoint Dewpoint Depression Visibility Wind Speed Wind Dir Waves Ship Positions

Voyager Of The Seas

Operator: Royal Caribbean Cruises Ltd

Last reported at 2018-Feb-22 08:00 UTC. Time now 2018-Feb-22 10:46 UTC.
Position S 22°33' E 166°02'.

Type: Passenger vessel. MMSI: 311317000.

Date/timePositionNaut miles runAvg speedWind from/ knotsBaromVisibWave heightAir tempDewpointWater temp
2018-Feb-22 08:00S 22°33' E 166°02'917.3
2018-Feb-22 07:28S 22°27' E 166°09'817.8
2018-Feb-22 07:00S 22°21' E 166°16'713.1
2018-Feb-22 06:31S 22°16' E 166°21'5 9.3
2018-Feb-22 06:01S 22°16' E 166°26'0 0.8
2018-Feb-22 05:28S 22°16' E 166°26'0 0.0
2018-Feb-22 04:56S 22°16' E 166°26'0 0.0
2018-Feb-22 04:28S 22°16' E 166°26'0 0.0
2018-Feb-22 03:58S 22°16' E 166°26'0 0.0
2018-Feb-22 03:29S 22°16' E 166°26'0 0.0
2018-Feb-22 02:58S 22°16' E 166°26'0 0.0
2018-Feb-22 02:28S 22°16' E 166°26'0 0.0
2018-Feb-22 01:58S 22°16' E 166°26'0 0.0
2018-Feb-22 01:28S 22°16' E 166°26'0 0.0
2018-Feb-22 00:58S 22°16' E 166°26'0 0.0
2018-Feb-22 00:28S 22°16' E 166°26'0 0.0
2018-Feb-21 23:58S 22°16' E 166°26'0 0.0
2018-Feb-21 23:29S 22°16' E 166°26'0 0.0
2018-Feb-21 22:58S 22°16' E 166°26'0 0.0
2018-Feb-21 22:28S 22°16' E 166°26'0 0.0
2018-Feb-21 21:55S 22°16' E 166°26'0 0.0
2018-Feb-21 21:28S 22°16' E 166°26'0 0.0
2018-Feb-21 20:58S 22°16' E 166°26'0 0.0
2018-Feb-21 20:28S 22°16' E 166°26'1 1.4
2018-Feb-21 20:00S 22°16' E 166°26'2 4.9
2018-Feb-21 19:30S 22°18' E 166°25'816.7
2018-Feb-21 19:00S 22°22' E 166°33'816.7
2018-Feb-21 18:31S 22°23' E 166°41'58 7.7
2018-Feb-21 11:00S 21°36' E 167°18'19011.2 100 / 111011.010.8 27.0
2018-Feb-20 18:00S 24°42' E 168°00'29112.1 090 / 141008.010.8 26.0 27.0
2018-Feb-19 18:00S 20°00' E 169°18'204 7.0 090 / 131008.010.8 27.0 27.0
2018-Feb-18 13:00S 18°00' E 166°24'30716.2 110 / 111009.010.8 27.0
2018-Feb-17 18:00S 19°24' E 161°12'7510.7 320 / 121005.010.8 25.0 26.0
2018-Feb-17 11:00S 20°06' E 160°06'33019.4 190 / 151007.010.8 26.0
2018-Feb-16 18:00S 24°24' E 156°24'14320.4 150 / 141009.010.8 25.0 26.0
2018-Feb-16 11:00S 26°42' E 155°42'37618.9 110 / 131011.010.8 26.0
2018-Feb-15 15:05S 32°35' E 153°12'219.0
2018-Feb-15 14:59S 32°36' E 153°10'919.1
2018-Feb-15 14:30S 32°42' E 153°02'1020.0
2018-Feb-15 14:00S 32°49' E 152°52'1020.4
2018-Feb-15 13:30S 32°55' E 152°43'1020.5
2018-Feb-15 13:00S 33°02' E 152°34'1020.4
2018-Feb-15 12:30S 33°09' E 152°25'1020.3
2018-Feb-15 12:00S 33°15' E 152°15'2819.4
2018-Feb-15 10:35S 33°33' E 151°50'118.9
2018-Feb-15 10:30S 33°34' E 151°49'1119.1
2018-Feb-15 09:55S 33°41' E 151°39'818.6
2018-Feb-15 09:30S 33°46' E 151°31'816.6
2018-Feb-15 09:00S 33°50' E 151°23'1 0.1
2018-Feb-14 18:08S 33°49' E 151°23'214.0
2018-Feb-14 18:00S 33°49' E 151°26'5918.1
2018-Feb-14 14:44S 33°12' E 152°22'617.8
2018-Feb-14 14:24S 33°09' E 152°28'717.4
2018-Feb-14 14:01S 33°05' E 152°34'917.7
2018-Feb-14 13:31S 32°58' E 152°41'917.7
2018-Feb-14 12:59S 32°52' E 152°49'1017.2
2018-Feb-14 12:26S 32°46' E 152°58'717.0
2018-Feb-14 12:00S 32°41' E 153°04'917.2
2018-Feb-14 11:30S 32°35' E 153°12'917.7
2018-Feb-14 11:01S 32°30' E 153°20'918.1
2018-Feb-14 10:31S 32°24' E 153°28'918.0
2018-Feb-14 10:01S 32°18' E 153°36'1018.0
2018-Feb-14 09:26S 32°11' E 153°45'818.1
2018-Feb-14 09:01S 32°06' E 153°52'1018.3
2018-Feb-14 08:28S 31°59' E 154°00'817.9
2018-Feb-14 08:01S 31°54' E 154°08'917.8
2018-Feb-14 07:30S 31°48' E 154°15'34018.3
2018-Feb-13 13:00S 28°00' E 159°06'1616.0 060 / 111011.010.8 24.0 25.0
2018-Feb-13 12:00S 27°48' E 159°18'43418.1 060 / 101010.827.0 24.5 24.0
2018-Feb-12 12:00S 23°00' E 165°18'4617.0 160 / 181007.010.8 25.0
2018-Feb-12 09:19S 22°34' E 165°59'517.9
2018-Feb-12 09:00S 22°30' E 166°03'917.7
2018-Feb-12 08:30S 22°25' E 166°11'  

Dump ship's entire track history